createdAt,value
2023-01-21T00:01:13.015Z,20.73
2023-01-21T00:03:40.451Z,16.83
2023-01-21T00:06:08.139Z,17.13
2023-01-21T00:08:35.683Z,16.48
2023-01-21T00:11:16.968Z,16.88
2023-01-21T00:13:44.749Z,19.52
2023-01-21T00:16:13.239Z,16.75
2023-01-21T00:18:40.870Z,16.17
2023-01-21T00:21:08.530Z,18.08
2023-01-21T00:23:35.827Z,17.92
2023-01-21T00:26:05.935Z,19.45
2023-01-21T00:28:35.265Z,16.23
2023-01-21T00:31:07.320Z,17.90
2023-01-21T00:33:36.680Z,23.10
2023-01-21T00:36:10.003Z,23.45
2023-01-21T00:38:37.422Z,16.70
2023-01-21T00:41:07.497Z,17.80
2023-01-21T00:43:35.213Z,26.00
2023-01-21T00:46:03.035Z,17.67
2023-01-21T00:48:30.342Z,20.00
2023-01-21T00:51:01.451Z,21.13
2023-01-21T00:53:31.651Z,17.02
2023-01-21T00:56:04.169Z,15.65
2023-01-21T01:01:08.754Z,13.27
2023-01-21T01:03:37.290Z,14.32
2023-01-21T01:06:16.908Z,16.10
2023-01-21T01:08:45.419Z,17.38
2023-01-21T01:11:14.114Z,18.35
2023-01-21T01:13:41.404Z,19.50
2023-01-21T01:16:10.705Z,16.85
2023-01-21T01:18:38.268Z,15.68
2023-01-21T01:21:06.628Z,20.50
2023-01-21T01:23:33.977Z,16.02
2023-01-21T01:26:03.819Z,16.73
2023-01-21T01:28:32.178Z,17.05
2023-01-21T01:31:00.540Z,19.42
2023-01-21T01:33:28.029Z,17.33
2023-01-21T01:35:55.470Z,18.77
2023-01-21T01:38:23.231Z,20.23
2023-01-21T01:40:52.584Z,18.77
2023-01-21T01:43:22.887Z,18.20
2023-01-21T01:45:51.062Z,19.73
2023-01-21T01:48:28.604Z,20.05
2023-01-21T01:51:01.102Z,19.85
2023-01-21T01:55:57.846Z,17.98
2023-01-21T01:58:25.291Z,18.00
2023-01-21T02:00:52.773Z,17.88
2023-01-21T02:03:38.801Z,20.05
2023-01-21T02:06:06.502Z,18.75
2023-01-21T02:08:36.279Z,19.60
2023-01-21T02:11:11.404Z,18.83
2023-01-21T02:13:39.031Z,21.65
2023-01-21T02:16:30.228Z,22.15
2023-01-21T02:19:15.835Z,23.17
2023-01-21T02:22:01.469Z,21.23
2023-01-21T02:24:34.569Z,22.58
2023-01-21T02:27:30.860Z,22.20
2023-01-21T02:30:07.956Z,24.63
2023-01-21T02:32:54.058Z,23.27
2023-01-21T02:35:25.370Z,21.90
2023-01-21T02:38:12.420Z,22.53
2023-01-21T02:41:06.520Z,23.63
2023-01-21T02:43:47.069Z,25.27
2023-01-21T02:46:26.806Z,23.15
2023-01-21T02:48:59.871Z,23.17
2023-01-21T02:51:27.049Z,21.75
2023-01-21T02:53:54.519Z,24.50
2023-01-21T02:56:25.624Z,21.75
2023-01-21T02:59:01.258Z,24.67
2023-01-21T03:02:08.258Z,23.02
2023-01-21T03:04:57.224Z,24.15
2023-01-21T03:07:35.542Z,24.50
2023-01-21T03:10:34.641Z,26.13
2023-01-21T03:13:13.379Z,25.60
2023-01-21T03:16:09.668Z,24.70
2023-01-21T03:18:41.959Z,24.88
2023-01-21T03:21:18.521Z,28.27
2023-01-21T03:23:49.189Z,28.17
2023-01-21T03:26:20.570Z,25.40
2023-01-21T03:28:54.554Z,25.85
2023-01-21T03:31:28.219Z,28.25
2023-01-21T03:34:00.329Z,26.08
2023-01-21T03:36:48.786Z,27.27
2023-01-21T03:39:48.542Z,27.02
2023-01-21T03:42:16.562Z,26.60
2023-01-21T03:44:45.187Z,25.00
2023-01-21T03:47:22.602Z,27.10
2023-01-21T03:49:56.374Z,26.08
2023-01-21T03:52:25.548Z,26.52
2023-01-21T03:54:53.937Z,26.77
2023-01-21T03:57:21.736Z,27.77
2023-01-21T03:59:48.931Z,27.02
2023-01-21T04:02:20.432Z,24.85
2023-01-21T04:04:48.017Z,24.35
2023-01-21T04:07:16.271Z,27.67
2023-01-21T04:09:43.933Z,26.95
2023-01-21T04:12:11.807Z,26.42
2023-01-21T04:14:38.955Z,24.55
2023-01-21T04:17:07.683Z,24.42
2023-01-21T04:19:34.892Z,24.80
2023-01-21T04:22:02.364Z,25.58
2023-01-21T04:24:29.628Z,24.63
2023-01-21T04:26:57.093Z,27.10
2023-01-21T04:29:24.236Z,22.77
2023-01-21T04:31:51.650Z,25.48
2023-01-21T04:34:18.782Z,22.05
2023-01-21T04:36:46.786Z,22.75
2023-01-21T04:39:13.977Z,23.55
2023-01-21T04:41:41.453Z,23.75
2023-01-21T04:44:08.919Z,22.80
2023-01-21T04:46:36.468Z,23.95
2023-01-21T04:49:03.756Z,21.27
2023-01-21T04:51:31.334Z,23.38
2023-01-21T04:53:58.527Z,22.85
2023-01-21T04:56:26.058Z,21.10
2023-01-21T04:58:53.297Z,21.20
2023-01-21T05:01:20.754Z,23.38
2023-01-21T05:03:47.956Z,18.90
2023-01-21T05:06:15.365Z,21.35
2023-01-21T05:08:42.572Z,21.45
2023-01-21T05:11:19.860Z,19.52
2023-01-21T05:13:47.102Z,20.33
2023-01-21T05:16:14.676Z,24.17
2023-01-21T05:18:42.560Z,20.70
2023-01-21T05:21:10.105Z,23.83
2023-01-21T05:23:37.348Z,21.67
2023-01-21T05:26:04.945Z,25.45
2023-01-21T05:28:32.160Z,23.80
2023-01-21T05:31:03.514Z,26.52
2023-01-21T05:33:35.083Z,28.27
2023-01-21T05:36:04.791Z,30.15
2023-01-21T05:38:31.993Z,26.58
2023-01-21T05:41:00.845Z,33.30
2023-01-21T05:43:28.657Z,27.38
2023-01-21T05:45:57.095Z,29.90
2023-01-21T05:48:24.809Z,26.73
2023-01-21T05:50:52.495Z,28.00
2023-01-21T05:53:19.838Z,20.75
2023-01-21T05:55:51.873Z,23.52
2023-01-21T05:58:19.564Z,19.30
2023-01-21T06:00:48.509Z,16.42
2023-01-21T06:03:17.003Z,19.48
2023-01-21T06:05:45.110Z,19.27
2023-01-21T06:08:13.257Z,20.17
2023-01-21T06:10:40.768Z,16.92
2023-01-21T06:13:10.715Z,18.27
2023-01-21T06:15:38.695Z,18.35
2023-01-21T06:18:06.611Z,17.92
2023-01-21T06:20:34.804Z,19.25
2023-01-21T06:23:03.715Z,16.73
2023-01-21T06:25:32.567Z,16.15
2023-01-21T06:28:01.206Z,13.63
2023-01-21T06:30:29.140Z,20.73
2023-01-21T06:32:56.339Z,19.55
2023-01-21T06:35:24.036Z,17.80
2023-01-21T06:37:51.275Z,15.85
2023-01-21T06:40:18.968Z,24.55
2023-01-21T06:42:48.144Z,21.77
2023-01-21T06:45:16.603Z,22.92
2023-01-21T06:47:44.975Z,18.42
2023-01-21T06:50:14.828Z,20.98
2023-01-21T06:52:46.923Z,17.48
2023-01-21T06:55:15.259Z,22.13
2023-01-21T06:57:43.608Z,19.08
2023-01-21T07:00:12.613Z,19.42
2023-01-21T07:02:39.913Z,20.83
2023-01-21T07:05:08.083Z,19.25
2023-01-21T07:07:35.722Z,28.42
2023-01-21T07:10:04.032Z,16.75
2023-01-21T07:12:31.797Z,18.38
2023-01-21T07:14:59.380Z,16.58
2023-01-21T07:17:26.647Z,17.35
2023-01-21T07:19:54.017Z,16.40
2023-01-21T07:22:21.374Z,13.98
2023-01-21T07:24:49.120Z,17.70
2023-01-21T07:27:16.349Z,12.77
2023-01-21T07:29:44.415Z,21.55
2023-01-21T07:32:11.627Z,18.92
2023-01-21T07:34:39.120Z,18.90
2023-01-21T07:37:06.270Z,17.30
2023-01-21T07:39:33.749Z,10.43
2023-01-21T07:42:01.042Z,17.42
2023-01-21T07:44:28.729Z,14.68
2023-01-21T07:46:56.063Z,15.13
2023-01-21T07:49:23.875Z,19.40
2023-01-21T07:51:56.717Z,19.08
2023-01-21T07:54:24.431Z,14.18
2023-01-21T07:56:51.589Z,10.07
2023-01-21T07:59:19.316Z,17.65
2023-01-21T08:01:46.773Z,23.00
2023-01-21T08:04:14.740Z,19.90
2023-01-21T08:06:42.134Z,16.40
2023-01-21T08:09:10.621Z,19.55
2023-01-21T08:11:37.781Z,14.45
2023-01-21T08:14:05.667Z,17.75
2023-01-21T08:16:32.910Z,16.88
2023-01-21T08:19:00.477Z,14.15
2023-01-21T08:21:27.753Z,17.98
2023-01-21T08:23:55.380Z,13.52
2023-01-21T08:26:25.452Z,11.60
2023-01-21T08:28:55.738Z,13.10
2023-01-21T08:31:23.021Z,13.52
2023-01-21T08:33:50.592Z,10.07
2023-01-21T08:36:17.754Z,10.48
2023-01-21T08:38:47.134Z,9.93
2023-01-21T08:41:16.593Z,12.35
2023-01-21T08:43:44.078Z,11.00
2023-01-21T08:46:11.363Z,10.82
2023-01-21T08:48:38.875Z,11.20
2023-01-21T08:51:06.423Z,16.95
2023-01-21T08:53:33.917Z,11.10
2023-01-21T08:56:03.344Z,13.00
2023-01-21T08:58:32.222Z,12.23
2023-01-21T09:00:59.798Z,11.05
2023-01-21T09:03:27.399Z,19.17
2023-01-21T09:05:55.786Z,11.77
2023-01-21T09:08:23.256Z,12.50
2023-01-21T09:11:02.849Z,10.60
2023-01-21T09:13:33.361Z,10.18
2023-01-21T09:16:01.379Z,10.15
2023-01-21T09:18:29.316Z,12.40
2023-01-21T09:21:01.754Z,9.85
2023-01-21T09:23:32.322Z,12.02
2023-01-21T09:26:02.384Z,11.50
2023-01-21T09:28:31.354Z,11.05
2023-01-21T09:31:00.623Z,11.73
2023-01-21T09:33:29.574Z,15.98
2023-01-21T09:35:58.870Z,13.75
2023-01-21T09:38:27.283Z,13.40
2023-01-21T09:40:56.243Z,11.85
2023-01-21T09:43:29.956Z,15.45
2023-01-21T09:46:01.187Z,14.82
2023-01-21T09:48:44.025Z,8.18
2023-01-21T09:51:27.437Z,10.30
2023-01-21T09:53:57.127Z,14.15
2023-01-21T09:56:34.476Z,10.27
2023-01-21T09:59:13.022Z,10.48
2023-01-21T10:01:42.648Z,9.65
2023-01-21T10:04:32.344Z,9.70
2023-01-21T10:07:15.551Z,14.32
2023-01-21T10:09:50.961Z,16.38
2023-01-21T10:12:28.680Z,15.85
2023-01-21T10:15:19.525Z,9.48
2023-01-21T10:17:58.091Z,25.40
2023-01-21T10:20:33.439Z,16.55
2023-01-21T10:23:06.184Z,26.08
2023-01-21T10:25:36.655Z,18.50
2023-01-21T10:28:14.536Z,14.93
2023-01-21T10:30:48.270Z,15.05
2023-01-21T10:33:26.126Z,16.33
2023-01-21T10:36:30.679Z,22.50
2023-01-21T10:39:43.877Z,23.52
2023-01-21T10:42:32.334Z,16.05
2023-01-21T10:45:12.053Z,41.00
2023-01-21T10:47:54.783Z,52.13
2023-01-21T10:50:25.194Z,19.55
2023-01-21T10:53:10.791Z,60.45
2023-01-21T10:56:13.376Z,20.08
2023-01-21T10:58:53.936Z,19.40
2023-01-21T11:01:44.531Z,43.55
2023-01-21T11:04:21.952Z,21.33
2023-01-21T11:07:02.246Z,90.15
2023-01-21T11:09:33.951Z,54.35
2023-01-21T11:12:03.022Z,34.28
2023-01-21T11:14:30.531Z,43.38
2023-01-21T11:16:58.107Z,30.10
2023-01-21T11:19:32.093Z,32.03
2023-01-21T11:22:11.246Z,80.65
2023-01-21T11:24:50.541Z,41.55
2023-01-21T11:27:23.125Z,31.33
2023-01-21T11:29:50.977Z,39.13
2023-01-21T11:32:21.953Z,51.13
2023-01-21T11:35:01.405Z,34.22
2023-01-21T11:37:30.854Z,28.70
2023-01-21T11:40:08.795Z,39.28
2023-01-21T11:42:50.830Z,48.78
2023-01-21T11:45:45.300Z,44.22
2023-01-21T11:48:21.142Z,44.78
2023-01-21T11:50:48.750Z,38.92
2023-01-21T11:53:18.137Z,44.25
2023-01-21T11:55:54.279Z,49.45
2023-01-21T11:58:28.814Z,30.75
2023-01-21T12:00:59.397Z,46.95
2023-01-21T12:03:33.008Z,26.17
2023-01-21T12:06:00.937Z,23.58
2023-01-21T12:08:35.779Z,29.55
2023-01-21T12:11:06.398Z,27.63
2023-01-21T12:13:48.292Z,25.13
2023-01-21T12:16:32.897Z,25.50
2023-01-21T12:19:10.557Z,20.73
2023-01-21T12:22:08.532Z,19.80
2023-01-21T12:25:02.916Z,20.98
2023-01-21T12:27:48.846Z,27.45
2023-01-21T12:30:41.166Z,33.42
2023-01-21T12:36:06.533Z,44.75
2023-01-21T12:38:40.980Z,28.23
2023-01-21T12:41:33.226Z,32.25
2023-01-21T12:44:16.049Z,29.13
2023-01-21T12:46:47.888Z,18.08
2023-01-21T12:49:24.910Z,14.23
2023-01-21T12:52:02.565Z,13.32
2023-01-21T12:54:59.116Z,13.98
2023-01-21T12:57:41.240Z,18.90
2023-01-21T13:00:40.330Z,22.08
2023-01-21T13:03:34.854Z,19.35
2023-01-21T13:06:52.337Z,23.05
2023-01-21T13:09:40.192Z,17.60
2023-01-21T13:12:21.575Z,17.67
2023-01-21T13:14:55.411Z,16.30
2023-01-21T13:17:27.987Z,15.57
2023-01-21T13:19:55.490Z,17.10
2023-01-21T13:22:42.614Z,18.40
2023-01-21T13:25:22.459Z,17.45
2023-01-21T13:27:55.821Z,20.17
2023-01-21T13:30:43.904Z,17.48
2023-01-21T13:33:49.397Z,15.98
2023-01-21T13:36:24.499Z,17.65
2023-01-21T13:39:13.200Z,20.90
2023-01-21T13:41:58.951Z,15.88
2023-01-21T13:44:32.356Z,18.20
2023-01-21T13:47:20.208Z,18.70
2023-01-21T13:50:18.077Z,24.08
2023-01-21T13:53:15.892Z,24.00
2023-01-21T13:55:43.624Z,22.13
2023-01-21T13:58:16.473Z,33.15
2023-01-21T14:00:55.704Z,50.92
2023-01-21T14:03:31.447Z,29.23
2023-01-21T14:06:01.968Z,30.73
2023-01-21T14:08:36.167Z,23.35
2023-01-21T14:11:23.677Z,25.88
2023-01-21T14:14:28.174Z,31.35
2023-01-21T14:17:14.113Z,19.80
2023-01-21T14:19:53.236Z,17.15
2023-01-21T14:22:26.793Z,27.05
2023-01-21T14:25:21.539Z,20.40
2023-01-21T14:28:25.614Z,32.42
2023-01-21T14:31:02.548Z,27.55
2023-01-21T14:33:37.548Z,27.67
2023-01-21T14:36:14.632Z,19.33
2023-01-21T14:38:57.425Z,20.75
2023-01-21T14:41:25.017Z,25.65
2023-01-21T14:43:53.328Z,26.13
2023-01-21T14:46:28.349Z,27.60
2023-01-21T14:49:01.629Z,19.65
2023-01-21T14:51:31.963Z,21.27
2023-01-21T14:54:11.209Z,22.25
2023-01-21T14:56:39.158Z,19.75
2023-01-21T14:59:46.388Z,20.75
2023-01-21T15:02:42.280Z,25.08
2023-01-21T15:05:20.772Z,19.25
2023-01-21T15:07:51.386Z,22.65
2023-01-21T15:10:24.907Z,18.40
2023-01-21T15:12:59.654Z,19.45
2023-01-21T15:15:35.028Z,29.55
2023-01-21T15:18:34.228Z,24.60
2023-01-21T15:21:21.745Z,18.02
2023-01-21T15:23:50.637Z,23.77
2023-01-21T15:26:29.402Z,19.48
2023-01-21T15:29:16.811Z,22.83
2023-01-21T15:31:45.083Z,19.25
2023-01-21T15:34:18.300Z,24.73
2023-01-21T15:36:50.389Z,22.10
2023-01-21T15:39:31.951Z,29.40
2023-01-21T15:42:30.141Z,19.00
2023-01-21T15:45:16.103Z,23.52
2023-01-21T15:48:02.610Z,35.33
2023-01-21T15:50:57.058Z,23.77
2023-01-21T15:53:43.460Z,23.20
2023-01-21T15:56:27.341Z,25.70
2023-01-21T15:59:03.994Z,30.30
2023-01-21T16:01:38.801Z,25.67
2023-01-21T16:04:15.786Z,31.38
2023-01-21T16:06:52.889Z,29.08
2023-01-21T16:09:28.794Z,30.50
2023-01-21T16:12:27.462Z,31.83
2023-01-21T16:15:21.553Z,33.13
2023-01-21T16:17:57.504Z,29.60
2023-01-21T16:20:25.705Z,29.52
2023-01-21T16:22:58.178Z,28.63
2023-01-21T16:25:26.571Z,33.33
2023-01-21T16:27:55.300Z,38.47
2023-01-21T16:30:30.884Z,31.33
2023-01-21T16:33:27.536Z,33.05
2023-01-21T16:35:58.332Z,38.17
2023-01-21T16:38:28.542Z,35.22
2023-01-21T16:41:08.466Z,36.85
2023-01-21T16:43:37.276Z,32.10
2023-01-21T16:46:10.610Z,33.47
2023-01-21T16:48:38.052Z,32.15
2023-01-21T16:51:06.395Z,33.42
2023-01-21T16:53:33.799Z,34.05
2023-01-21T16:56:01.505Z,34.97
2023-01-21T16:58:32.603Z,35.95
2023-01-21T17:01:11.099Z,33.07
2023-01-21T17:03:39.429Z,33.47
2023-01-21T17:06:15.517Z,34.47
2023-01-21T17:08:47.369Z,33.72
2023-01-21T17:11:15.047Z,35.38
2023-01-21T17:13:44.395Z,35.35
2023-01-21T17:16:18.835Z,35.50
2023-01-21T17:19:02.369Z,34.83
2023-01-21T17:21:31.980Z,38.15
2023-01-21T17:24:03.684Z,37.03
2023-01-21T17:26:43.675Z,37.75
2023-01-21T17:29:19.856Z,39.00
2023-01-21T17:31:56.254Z,42.05
2023-01-21T17:34:26.474Z,43.72
2023-01-21T17:36:55.016Z,40.10
2023-01-21T17:39:48.161Z,40.97
2023-01-21T17:42:20.341Z,40.40
2023-01-21T17:44:54.582Z,39.88
2023-01-21T17:48:07.888Z,38.70
2023-01-21T17:50:36.392Z,38.03
2023-01-21T17:53:07.245Z,38.85
2023-01-21T17:55:39.047Z,37.88
2023-01-21T17:58:31.489Z,38.80
2023-01-21T18:01:04.379Z,39.38
2023-01-21T18:03:34.261Z,38.20
2023-01-21T18:06:02.738Z,36.90
2023-01-21T18:08:30.358Z,42.75
2023-01-21T18:10:57.757Z,47.83
2023-01-21T18:13:25.375Z,43.28
2023-01-21T18:15:54.342Z,47.35
2023-01-21T18:18:29.894Z,44.35
2023-01-21T18:20:57.617Z,44.38
2023-01-21T18:23:25.480Z,42.45
2023-01-21T18:25:53.662Z,43.55
2023-01-21T18:28:27.672Z,54.03
2023-01-21T18:30:57.340Z,44.42
2023-01-21T18:33:25.945Z,41.65
2023-01-21T18:35:53.824Z,37.28
2023-01-21T18:38:32.597Z,42.13
2023-01-21T18:41:00.880Z,44.25
2023-01-21T18:43:28.563Z,40.50
2023-01-21T18:45:56.072Z,42.95
2023-01-21T18:48:29.375Z,43.35
2023-01-21T18:50:56.811Z,45.72
2023-01-21T18:53:25.575Z,45.13
2023-01-21T18:55:56.494Z,42.45
2023-01-21T18:58:24.271Z,53.28
2023-01-21T19:00:51.688Z,50.42
2023-01-21T19:03:20.074Z,45.40
2023-01-21T19:05:47.732Z,51.83
2023-01-21T19:08:18.492Z,53.92
2023-01-21T19:10:45.913Z,50.63
2023-01-21T19:13:13.594Z,52.28
2023-01-21T19:15:41.904Z,48.65
2023-01-21T19:18:14.382Z,44.28
2023-01-21T19:20:42.246Z,45.85
2023-01-21T19:23:18.831Z,44.40
2023-01-21T19:25:52.671Z,56.95
2023-01-21T19:28:20.903Z,51.53
2023-01-21T19:30:49.880Z,45.63
2023-01-21T19:33:17.698Z,51.70
2023-01-21T19:35:46.011Z,43.33
2023-01-21T19:38:21.243Z,46.00
2023-01-21T19:40:48.625Z,44.75
2023-01-21T19:43:18.407Z,45.53
2023-01-21T19:45:45.884Z,47.42
2023-01-21T19:48:15.582Z,48.35
2023-01-21T19:50:43.274Z,43.22
2023-01-21T19:53:15.361Z,48.33
2023-01-21T19:55:44.349Z,46.95
2023-01-21T19:58:22.400Z,44.85
2023-01-21T20:00:53.554Z,44.55
2023-01-21T20:03:24.580Z,43.25
2023-01-21T20:05:54.439Z,43.08
2023-01-21T20:08:24.701Z,48.00
2023-01-21T20:10:52.234Z,47.17
2023-01-21T20:13:20.812Z,48.25
2023-01-21T20:15:50.510Z,45.42
2023-01-21T20:18:24.583Z,45.15
2023-01-21T20:20:53.114Z,49.25
2023-01-21T20:23:22.617Z,48.65
2023-01-21T20:25:58.751Z,63.42
2023-01-21T20:28:33.641Z,46.55
2023-01-21T20:31:07.611Z,46.80
2023-01-21T20:33:36.178Z,45.45
2023-01-21T20:36:07.113Z,44.47
2023-01-21T20:38:37.428Z,52.97
2023-01-21T20:41:06.181Z,51.13
2023-01-21T20:43:33.781Z,46.58
2023-01-21T20:46:07.015Z,48.47
2023-01-21T20:48:37.368Z,46.08
2023-01-21T20:51:05.174Z,47.58
2023-01-21T20:53:33.085Z,45.42
2023-01-21T20:56:09.100Z,44.85
2023-01-21T20:58:36.811Z,45.20
2023-01-21T21:01:04.417Z,46.83
2023-01-21T21:03:35.659Z,48.53
2023-01-21T21:06:11.084Z,48.03
2023-01-21T21:08:39.056Z,46.80
2023-01-21T21:11:06.398Z,49.10
2023-01-21T21:13:34.105Z,54.17
2023-01-21T21:16:02.787Z,48.63
2023-01-21T21:18:35.524Z,47.60
2023-01-21T21:21:02.861Z,47.95
2023-01-21T21:23:30.472Z,46.45
2023-01-21T21:25:57.734Z,43.17
2023-01-21T21:28:25.301Z,49.10
2023-01-21T21:30:52.770Z,47.20
2023-01-21T21:33:22.096Z,42.83
2023-01-21T21:35:49.882Z,44.17
2023-01-21T21:38:21.834Z,45.33
2023-01-21T21:40:53.112Z,43.38
2023-01-21T21:43:35.891Z,45.53
2023-01-21T21:46:30.258Z,46.47
2023-01-21T21:48:58.116Z,41.80
2023-01-21T21:51:25.575Z,44.95
2023-01-21T21:53:53.413Z,42.22
2023-01-21T21:56:23.342Z,48.20
2023-01-21T21:58:51.876Z,41.72
2023-01-21T22:01:24.947Z,45.55
2023-01-21T22:03:52.996Z,44.53
2023-01-21T22:06:22.483Z,45.83
2023-01-21T22:08:52.747Z,48.13
2023-01-21T22:11:22.036Z,44.88
2023-01-21T22:13:51.369Z,47.47
2023-01-21T22:16:29.758Z,44.10
2023-01-21T22:18:59.473Z,43.53
2023-01-21T22:21:35.551Z,44.50
2023-01-21T22:24:05.706Z,43.95
2023-01-21T22:26:35.550Z,46.72
2023-01-21T22:29:05.196Z,54.95
2023-01-21T22:31:33.385Z,53.63
2023-01-21T22:34:01.422Z,58.17
2023-01-21T22:36:30.666Z,62.20
2023-01-21T22:38:58.801Z,52.20
2023-01-21T22:41:26.556Z,54.40
2023-01-21T22:43:54.781Z,61.25
2023-01-21T22:46:33.761Z,50.28
2023-01-21T22:49:01.462Z,49.55
2023-01-21T22:51:28.897Z,44.17
2023-01-21T22:53:57.105Z,48.22
2023-01-21T22:56:45.017Z,48.47
2023-01-21T22:59:13.433Z,44.67
2023-01-21T23:01:40.973Z,43.45
2023-01-21T23:04:09.248Z,49.67
2023-01-21T23:06:37.855Z,44.33
2023-01-21T23:09:08.145Z,42.17
2023-01-21T23:11:38.801Z,41.40
2023-01-21T23:14:08.721Z,42.13
2023-01-21T23:16:36.245Z,46.97
2023-01-21T23:19:04.207Z,42.75
2023-01-21T23:21:31.623Z,47.95
2023-01-21T23:23:59.320Z,40.83
2023-01-21T23:26:26.499Z,37.17
2023-01-21T23:28:55.970Z,37.58
2023-01-21T23:31:24.299Z,39.17
2023-01-21T23:33:52.938Z,37.67
2023-01-21T23:36:20.293Z,38.80
2023-01-21T23:38:48.076Z,39.05
2023-01-21T23:41:19.774Z,36.50
2023-01-21T23:43:47.404Z,38.00
2023-01-21T23:46:16.843Z,44.30
2023-01-21T23:48:44.366Z,37.83
2023-01-21T23:51:13.442Z,39.22
2023-01-21T23:53:41.408Z,41.35
2023-01-21T23:56:19.983Z,41.85
2023-01-21T23:58:48.434Z,43.35
